sensor_id;sensor_type;location;lat;lon;timestamp;P1;durP1;ratioP1;P2;durP2;ratioP2
52396;SDS011;38322;53.108;6.308;2023-04-03T05:03:11;8.80;;;1.52;;
52396;SDS011;38322;53.108;6.308;2023-04-03T05:05:37;3.17;;;2.05;;
52396;SDS011;38322;53.108;6.308;2023-04-03T05:08:03;4.43;;;1.52;;
52396;SDS011;38322;53.108;6.308;2023-04-03T05:10:30;7.32;;;2.30;;
52396;SDS011;38322;53.108;6.308;2023-04-03T05:12:56;7.60;;;3.38;;
52396;SDS011;38322;53.108;6.308;2023-04-03T05:15:22;5.93;;;1.30;;
52396;SDS011;38322;53.108;6.308;2023-04-03T05:17:48;4.28;;;2.53;;
52396;SDS011;38322;53.108;6.308;2023-04-03T05:20:15;5.82;;;1.73;;
52396;SDS011;38322;53.108;6.308;2023-04-03T05:22:41;4.03;;;1.75;;
52396;SDS011;38322;53.108;6.308;2023-04-03T05:25:07;9.10;;;3.67;;
52396;SDS011;38322;53.108;6.308;2023-04-03T05:27:33;3.97;;;1.65;;
52396;SDS011;38322;53.108;6.308;2023-04-03T05:29:59;3.38;;;1.50;;
52396;SDS011;38322;53.108;6.308;2023-04-03T05:32:25;6.15;;;2.33;;
52396;SDS011;38322;53.108;6.308;2023-04-03T05:34:52;6.40;;;1.40;;
52396;SDS011;38322;53.108;6.308;2023-04-03T05:37:19;7.20;;;2.10;;
52396;SDS011;38322;53.108;6.308;2023-04-03T05:39:45;5.10;;;2.15;;
52396;SDS011;38322;53.108;6.308;2023-04-03T05:42:11;7.60;;;1.65;;
52396;SDS011;38322;53.108;6.308;2023-04-03T05:44:38;6.60;;;1.77;;
52396;SDS011;38322;53.108;6.308;2023-04-03T05:47:04;9.43;;;2.13;;
52396;SDS011;38322;53.108;6.308;2023-04-03T05:49:30;8.85;;;2.50;;
52396;SDS011;38322;53.108;6.308;2023-04-03T05:51:56;4.43;;;1.75;;
52396;SDS011;38322;53.108;6.308;2023-04-03T05:54:23;9.00;;;2.10;;
52396;SDS011;38322;53.108;6.308;2023-04-03T05:56:51;8.63;;;1.95;;
52396;SDS011;38322;53.108;6.308;2023-04-03T05:59:18;4.63;;;2.92;;
52396;SDS011;38322;53.108;6.308;2023-04-03T06:01:45;4.97;;;3.22;;
52396;SDS011;38322;53.108;6.308;2023-04-03T06:04:11;11.65;;;3.35;;
52396;SDS011;38322;53.108;6.308;2023-04-03T06:06:45;5.28;;;1.45;;
52396;SDS011;38322;53.108;6.308;2023-04-03T06:09:14;8.23;;;2.45;;
52396;SDS011;38322;53.108;6.308;2023-04-03T06:11:41;3.80;;;1.75;;
52396;SDS011;38322;53.108;6.308;2023-04-03T06:14:08;4.70;;;1.83;;
52396;SDS011;38322;53.108;6.308;2023-04-03T06:16:34;6.05;;;1.90;;
52396;SDS011;38322;53.108;6.308;2023-04-03T06:19:00;4.57;;;1.90;;
52396;SDS011;38322;53.108;6.308;2023-04-03T06:21:26;3.53;;;1.85;;
52396;SDS011;38322;53.108;6.308;2023-04-03T06:23:52;7.30;;;2.42;;
52396;SDS011;38322;53.108;6.308;2023-04-03T06:26:18;7.28;;;2.30;;
52396;SDS011;38322;53.108;6.308;2023-04-03T06:28:44;6.05;;;1.75;;
52396;SDS011;38322;53.108;6.308;2023-04-03T06:31:10;7.78;;;2.03;;
52396;SDS011;38322;53.108;6.308;2023-04-03T06:33:35;10.88;;;2.60;;
52396;SDS011;38322;53.108;6.308;2023-04-03T06:36:03;8.02;;;2.42;;
52396;SDS011;38322;53.108;6.308;2023-04-03T06:38:30;6.25;;;2.42;;
52396;SDS011;38322;53.108;6.308;2023-04-03T06:40:57;4.70;;;1.70;;
52396;SDS011;38322;53.108;6.308;2023-04-03T06:43:23;6.10;;;2.10;;
52396;SDS011;38322;53.108;6.308;2023-04-03T06:45:49;10.18;;;3.03;;
52396;SDS011;38322;53.108;6.308;2023-04-03T06:48:15;9.07;;;2.25;;
52396;SDS011;38322;53.108;6.308;2023-04-03T06:50:41;6.80;;;2.72;;
52396;SDS011;38322;53.108;6.308;2023-04-03T06:53:07;5.18;;;1.55;;
52396;SDS011;38322;53.108;6.308;2023-04-03T06:55:33;6.32;;;1.45;;
52396;SDS011;38322;53.108;6.308;2023-04-03T06:57:59;5.50;;;1.95;;
52396;SDS011;38322;53.108;6.308;2023-04-03T07:00:25;7.15;;;2.58;;
52396;SDS011;38322;53.108;6.308;2023-04-03T07:02:51;7.82;;;1.83;;
52396;SDS011;38322;53.108;6.308;2023-04-03T07:05:17;8.50;;;1.83;;
52396;SDS011;38322;53.108;6.308;2023-04-03T07:07:44;3.35;;;1.83;;
52396;SDS011;38322;53.108;6.308;2023-04-03T07:10:10;7.00;;;2.20;;
52396;SDS011;38322;53.108;6.308;2023-04-03T07:12:36;6.65;;;1.23;;
52396;SDS011;38322;53.108;6.308;2023-04-03T07:15:04;7.43;;;1.25;;
52396;SDS011;38322;53.108;6.308;2023-04-03T07:17:30;10.15;;;1.55;;
52396;SDS011;38322;53.108;6.308;2023-04-03T07:19:57;4.18;;;1.90;;
52396;SDS011;38322;53.108;6.308;2023-04-03T07:22:23;12.95;;;1.90;;
52396;SDS011;38322;53.108;6.308;2023-04-03T07:24:48;3.22;;;1.25;;
52396;SDS011;38322;53.108;6.308;2023-04-03T07:27:14;15.68;;;2.35;;
52396;SDS011;38322;53.108;6.308;2023-04-03T07:29:40;5.18;;;1.33;;
52396;SDS011;38322;53.108;6.308;2023-04-03T07:32:06;4.00;;;1.13;;
52396;SDS011;38322;53.108;6.308;2023-04-03T07:34:32;7.75;;;1.75;;
52396;SDS011;38322;53.108;6.308;2023-04-03T07:36:58;6.70;;;1.20;;
52396;SDS011;38322;53.108;6.308;2023-04-03T07:39:25;4.57;;;1.17;;
52396;SDS011;38322;53.108;6.308;2023-04-03T07:41:51;6.43;;;1.90;;
52396;SDS011;38322;53.108;6.308;2023-04-03T07:44:17;4.40;;;1.05;;
52396;SDS011;38322;53.108;6.308;2023-04-03T07:46:43;4.47;;;1.52;;
52396;SDS011;38322;53.108;6.308;2023-04-03T07:49:09;4.20;;;1.00;;
52396;SDS011;38322;53.108;6.308;2023-04-03T07:51:36;4.90;;;1.63;;
52396;SDS011;38322;53.108;6.308;2023-04-03T07:54:02;3.60;;;1.55;;
52396;SDS011;38322;53.108;6.308;2023-04-03T07:56:28;4.85;;;1.88;;
52396;SDS011;38322;53.108;6.308;2023-04-03T07:58:54;12.23;;;1.35;;
52396;SDS011;38322;53.108;6.308;2023-04-03T08:01:20;4.43;;;1.45;;
52396;SDS011;38322;53.108;6.308;2023-04-03T08:03:47;3.95;;;1.40;;
52396;SDS011;38322;53.108;6.308;2023-04-03T08:06:12;9.43;;;1.13;;
52396;SDS011;38322;53.108;6.308;2023-04-03T08:08:40;2.55;;;0.70;;
52396;SDS011;38322;53.108;6.308;2023-04-03T08:11:06;4.22;;;1.00;;
52396;SDS011;38322;53.108;6.308;2023-04-03T08:13:33;5.53;;;0.98;;
52396;SDS011;38322;53.108;6.308;2023-04-03T08:16:08;3.72;;;1.15;;
52396;SDS011;38322;53.108;6.308;2023-04-03T08:18:35;5.13;;;0.95;;
52396;SDS011;38322;53.108;6.308;2023-04-03T08:21:04;6.05;;;0.88;;
52396;SDS011;38322;53.108;6.308;2023-04-03T08:23:31;3.42;;;1.08;;
52396;SDS011;38322;53.108;6.308;2023-04-03T08:25:56;4.40;;;1.15;;
52396;SDS011;38322;53.108;6.308;2023-04-03T08:28:22;8.35;;;1.23;;
52396;SDS011;38322;53.108;6.308;2023-04-03T08:30:48;6.75;;;1.98;;
52396;SDS011;38322;53.108;6.308;2023-04-03T08:33:14;2.70;;;0.90;;
52396;SDS011;38322;53.108;6.308;2023-04-03T08:35:41;5.85;;;0.90;;
52396;SDS011;38322;53.108;6.308;2023-04-03T08:38:07;6.72;;;1.23;;
52396;SDS011;38322;53.108;6.308;2023-04-03T08:40:34;2.85;;;1.00;;
52396;SDS011;38322;53.108;6.308;2023-04-03T08:43:03;2.58;;;0.80;;
52396;SDS011;38322;53.108;6.308;2023-04-03T08:45:55;4.38;;;1.45;;
52396;SDS011;38322;53.108;6.308;2023-04-03T08:48:31;4.35;;;1.33;;
52396;SDS011;38322;53.108;6.308;2023-04-03T08:51:02;3.50;;;1.00;;
52396;SDS011;38322;53.108;6.308;2023-04-03T08:53:32;5.18;;;1.33;;
52396;SDS011;38322;53.108;6.308;2023-04-03T08:56:07;3.05;;;1.10;;
52396;SDS011;38322;53.108;6.308;2023-04-03T08:58:42;3.17;;;0.98;;
52396;SDS011;38322;53.108;6.308;2023-04-03T09:01:27;2.10;;;0.60;;
52396;SDS011;38322;53.108;6.308;2023-04-03T09:04:00;6.47;;;0.43;;
52396;SDS011;38322;53.108;6.308;2023-04-03T09:06:29;3.83;;;0.47;;
52396;SDS011;38322;53.108;6.308;2023-04-03T09:09:07;6.68;;;2.78;;
52396;SDS011;38322;53.108;6.308;2023-04-03T09:17:04;7.20;;;0.93;;
52396;SDS011;38322;53.108;6.308;2023-04-03T09:19:55;3.53;;;0.80;;
52396;SDS011;38322;53.108;6.308;2023-04-03T09:22:33;4.07;;;0.80;;
52396;SDS011;38322;53.108;6.308;2023-04-03T09:25:07;3.90;;;0.90;;
52396;SDS011;38322;53.108;6.308;2023-04-03T09:27:40;6.15;;;2.45;;
52396;SDS011;38322;53.108;6.308;2023-04-03T09:30:12;2.55;;;1.30;;
52396;SDS011;38322;53.108;6.308;2023-04-03T09:32:40;3.97;;;0.60;;
52396;SDS011;38322;53.108;6.308;2023-04-03T09:35:21;1.92;;;0.55;;
52396;SDS011;38322;53.108;6.308;2023-04-03T09:37:52;6.20;;;0.93;;
52396;SDS011;38322;53.108;6.308;2023-04-03T09:42:53;3.35;;;1.48;;
52396;SDS011;38322;53.108;6.308;2023-04-03T09:45:29;6.63;;;0.70;;
52396;SDS011;38322;53.108;6.308;2023-04-03T09:48:05;3.47;;;0.60;;
52396;SDS011;38322;53.108;6.308;2023-04-03T09:50:33;3.42;;;2.13;;
52396;SDS011;38322;53.108;6.308;2023-04-03T09:53:04;2.55;;;0.50;;
52396;SDS011;38322;53.108;6.308;2023-04-03T09:58:20;2.20;;;0.30;;
52396;SDS011;38322;53.108;6.308;2023-04-03T10:00:54;4.97;;;1.55;;
52396;SDS011;38322;53.108;6.308;2023-04-03T10:03:24;3.88;;;0.80;;
52396;SDS011;38322;53.108;6.308;2023-04-03T10:05:53;2.20;;;1.43;;
52396;SDS011;38322;53.108;6.308;2023-04-03T10:08:22;2.67;;;0.90;;
52396;SDS011;38322;53.108;6.308;2023-04-03T10:11:06;8.00;;;1.92;;
52396;SDS011;38322;53.108;6.308;2023-04-03T10:13:35;4.40;;;0.95;;
52396;SDS011;38322;53.108;6.308;2023-04-03T10:16:09;2.17;;;1.20;;
52396;SDS011;38322;53.108;6.308;2023-04-03T10:18:42;5.05;;;0.60;;
52396;SDS011;38322;53.108;6.308;2023-04-03T10:21:19;2.42;;;0.40;;
52396;SDS011;38322;53.108;6.308;2023-04-03T10:23:51;4.38;;;0.65;;
52396;SDS011;38322;53.108;6.308;2023-04-03T10:26:32;2.90;;;0.50;;
52396;SDS011;38322;53.108;6.308;2023-04-03T10:31:51;2.60;;;0.60;;
52396;SDS011;38322;53.108;6.308;2023-04-03T10:34:46;1.35;;;0.50;;
52396;SDS011;38322;53.108;6.308;2023-04-03T10:37:21;2.47;;;0.30;;
52396;SDS011;38322;53.108;6.308;2023-04-03T10:39:54;2.75;;;0.60;;
52396;SDS011;38322;53.108;6.308;2023-04-03T10:42:32;5.40;;;0.80;;
52396;SDS011;38322;53.108;6.308;2023-04-03T10:45:28;2.75;;;0.82;;
52396;SDS011;38322;53.108;6.308;2023-04-03T10:51:00;2.55;;;1.02;;
52396;SDS011;38322;53.108;6.308;2023-04-03T10:53:47;1.27;;;0.43;;
52396;SDS011;38322;53.108;6.308;2023-04-03T11:01:25;2.28;;;0.20;;
52396;SDS011;38322;53.108;6.308;2023-04-03T11:03:57;1.00;;;0.43;;
52396;SDS011;38322;53.108;6.308;2023-04-03T11:06:25;1.65;;;0.32;;
52396;SDS011;38322;53.108;6.308;2023-04-03T11:09:00;1.23;;;0.47;;
52396;SDS011;38322;53.108;6.308;2023-04-03T11:11:31;0.80;;;0.20;;
52396;SDS011;38322;53.108;6.308;2023-04-03T11:14:01;2.40;;;0.45;;
52396;SDS011;38322;53.108;6.308;2023-04-03T11:16:37;0.43;;;0.25;;
52396;SDS011;38322;53.108;6.308;2023-04-03T11:19:11;1.10;;;0.20;;
52396;SDS011;38322;53.108;6.308;2023-04-03T11:21:54;3.08;;;0.75;;
52396;SDS011;38322;53.108;6.308;2023-04-03T11:24:27;3.65;;;0.20;;
52396;SDS011;38322;53.108;6.308;2023-04-03T11:26:57;1.20;;;0.65;;
52396;SDS011;38322;53.108;6.308;2023-04-03T11:29:27;1.00;;;0.20;;
52396;SDS011;38322;53.108;6.308;2023-04-03T11:32:08;1.63;;;0.20;;
52396;SDS011;38322;53.108;6.308;2023-04-03T11:34:53;1.33;;;0.10;;
52396;SDS011;38322;53.108;6.308;2023-04-03T11:39:54;2.85;;;0.77;;
52396;SDS011;38322;53.108;6.308;2023-04-03T11:42:26;1.80;;;0.77;;
52396;SDS011;38322;53.108;6.308;2023-04-03T11:47:49;0.98;;;0.40;;
52396;SDS011;38322;53.108;6.308;2023-04-03T11:50:31;1.02;;;0.35;;
52396;SDS011;38322;53.108;6.308;2023-04-03T11:53:01;1.05;;;0.20;;
52396;SDS011;38322;53.108;6.308;2023-04-03T12:05:52;1.20;;;0.43;;
52396;SDS011;38322;53.108;6.308;2023-04-03T12:08:27;2.25;;;0.30;;
52396;SDS011;38322;53.108;6.308;2023-04-03T12:13:38;0.82;;;0.20;;
52396;SDS011;38322;53.108;6.308;2023-04-03T12:16:07;1.95;;;0.25;;
52396;SDS011;38322;53.108;6.308;2023-04-03T12:21:20;3.33;;;0.30;;
52396;SDS011;38322;53.108;6.308;2023-04-03T12:26:30;3.13;;;0.50;;
52396;SDS011;38322;53.108;6.308;2023-04-03T12:29:12;1.73;;;0.90;;
52396;SDS011;38322;53.108;6.308;2023-04-03T12:32:09;2.17;;;0.60;;
52396;SDS011;38322;53.108;6.308;2023-04-03T12:35:05;2.83;;;0.65;;
52396;SDS011;38322;53.108;6.308;2023-04-03T12:37:40;3.05;;;0.50;;
52396;SDS011;38322;53.108;6.308;2023-04-03T12:40:21;2.58;;;0.35;;
52396;SDS011;38322;53.108;6.308;2023-04-03T12:48:48;1.52;;;0.57;;
52396;SDS011;38322;53.108;6.308;2023-04-03T12:53:59;1.52;;;0.38;;
52396;SDS011;38322;53.108;6.308;2023-04-03T12:56:30;1.00;;;0.30;;
52396;SDS011;38322;53.108;6.308;2023-04-03T12:59:14;1.10;;;0.30;;
52396;SDS011;38322;53.108;6.308;2023-04-03T13:01:41;1.73;;;0.45;;
52396;SDS011;38322;53.108;6.308;2023-04-03T13:04:09;2.63;;;0.35;;
52396;SDS011;38322;53.108;6.308;2023-04-03T13:06:39;1.25;;;0.43;;
52396;SDS011;38322;53.108;6.308;2023-04-03T13:09:06;1.85;;;0.88;;
52396;SDS011;38322;53.108;6.308;2023-04-03T13:11:51;3.53;;;0.20;;
52396;SDS011;38322;53.108;6.308;2023-04-03T13:14:28;7.60;;;0.68;;
52396;SDS011;38322;53.108;6.308;2023-04-03T13:16:56;1.15;;;0.20;;
52396;SDS011;38322;53.108;6.308;2023-04-03T13:19:24;1.20;;;0.30;;
52396;SDS011;38322;53.108;6.308;2023-04-03T13:21:52;2.60;;;0.47;;
52396;SDS011;38322;53.108;6.308;2023-04-03T13:24:22;3.00;;;0.30;;
52396;SDS011;38322;53.108;6.308;2023-04-03T13:26:48;2.42;;;0.40;;
52396;SDS011;38322;53.108;6.308;2023-04-03T13:29:21;1.17;;;0.40;;
52396;SDS011;38322;53.108;6.308;2023-04-03T13:31:52;1.27;;;0.30;;
52396;SDS011;38322;53.108;6.308;2023-04-03T13:34:20;1.58;;;0.40;;
52396;SDS011;38322;53.108;6.308;2023-04-03T13:41:44;3.97;;;0.98;;
52396;SDS011;38322;53.108;6.308;2023-04-03T13:46:48;2.50;;;0.93;;
52396;SDS011;38322;53.108;6.308;2023-04-03T13:49:20;0.75;;;0.32;;
52396;SDS011;38322;53.108;6.308;2023-04-03T13:51:48;3.50;;;0.32;;
52396;SDS011;38322;53.108;6.308;2023-04-03T13:54:22;5.13;;;0.50;;
52396;SDS011;38322;53.108;6.308;2023-04-03T13:56:53;2.63;;;0.32;;
52396;SDS011;38322;53.108;6.308;2023-04-03T13:59:22;7.00;;;0.52;;
52396;SDS011;38322;53.108;6.308;2023-04-03T14:01:52;5.97;;;0.50;;
52396;SDS011;38322;53.108;6.308;2023-04-03T14:04:28;1.27;;;0.20;;
52396;SDS011;38322;53.108;6.308;2023-04-03T14:06:57;1.15;;;0.40;;
52396;SDS011;38322;53.108;6.308;2023-04-03T14:09:24;0.80;;;0.30;;
52396;SDS011;38322;53.108;6.308;2023-04-03T14:11:53;2.53;;;0.50;;
52396;SDS011;38322;53.108;6.308;2023-04-03T14:14:21;2.85;;;0.30;;
52396;SDS011;38322;53.108;6.308;2023-04-03T14:16:53;1.95;;;0.60;;
52396;SDS011;38322;53.108;6.308;2023-04-03T14:19:22;2.50;;;0.60;;
52396;SDS011;38322;53.108;6.308;2023-04-03T14:21:50;1.23;;;0.50;;
52396;SDS011;38322;53.108;6.308;2023-04-03T14:24:18;2.40;;;0.55;;
52396;SDS011;38322;53.108;6.308;2023-04-03T14:26:45;2.33;;;0.73;;
52396;SDS011;38322;53.108;6.308;2023-04-03T14:29:12;0.52;;;0.20;;
52396;SDS011;38322;53.108;6.308;2023-04-03T14:31:39;1.60;;;0.60;;
52396;SDS011;38322;53.108;6.308;2023-04-03T14:34:06;2.55;;;0.52;;
52396;SDS011;38322;53.108;6.308;2023-04-03T14:36:32;2.95;;;0.85;;
52396;SDS011;38322;53.108;6.308;2023-04-03T14:38:59;5.32;;;0.95;;
52396;SDS011;38322;53.108;6.308;2023-04-03T14:41:26;3.55;;;0.43;;
52396;SDS011;38322;53.108;6.308;2023-04-03T14:43:53;2.17;;;0.50;;
52396;SDS011;38322;53.108;6.308;2023-04-03T14:46:24;1.23;;;0.60;;
52396;SDS011;38322;53.108;6.308;2023-04-03T14:48:54;2.60;;;0.57;;
52396;SDS011;38322;53.108;6.308;2023-04-03T14:51:20;2.03;;;0.50;;
52396;SDS011;38322;53.108;6.308;2023-04-03T14:53:45;5.07;;;1.00;;
52396;SDS011;38322;53.108;6.308;2023-04-03T14:56:13;2.25;;;0.47;;
52396;SDS011;38322;53.108;6.308;2023-04-03T14:58:42;1.83;;;0.80;;
52396;SDS011;38322;53.108;6.308;2023-04-03T15:01:10;3.92;;;0.68;;
52396;SDS011;38322;53.108;6.308;2023-04-03T15:03:39;3.92;;;0.77;;
52396;SDS011;38322;53.108;6.308;2023-04-03T15:06:05;3.38;;;0.60;;
52396;SDS011;38322;53.108;6.308;2023-04-03T15:08:31;2.17;;;0.30;;
52396;SDS011;38322;53.108;6.308;2023-04-03T15:10:57;1.73;;;0.40;;
52396;SDS011;38322;53.108;6.308;2023-04-03T15:13:24;1.05;;;0.30;;
52396;SDS011;38322;53.108;6.308;2023-04-03T15:15:50;1.60;;;0.40;;
52396;SDS011;38322;53.108;6.308;2023-04-03T15:18:18;1.50;;;0.85;;
52396;SDS011;38322;53.108;6.308;2023-04-03T15:20:51;1.90;;;0.38;;
52396;SDS011;38322;53.108;6.308;2023-04-03T15:23:18;3.55;;;0.70;;
52396;SDS011;38322;53.108;6.308;2023-04-03T15:25:44;6.25;;;0.30;;
52396;SDS011;38322;53.108;6.308;2023-04-03T15:28:17;1.75;;;0.82;;
52396;SDS011;38322;53.108;6.308;2023-04-03T15:30:47;1.08;;;0.30;;
52396;SDS011;38322;53.108;6.308;2023-04-03T15:33:13;2.53;;;1.00;;
52396;SDS011;38322;53.108;6.308;2023-04-03T15:35:41;3.58;;;0.65;;
52396;SDS011;38322;53.108;6.308;2023-04-03T15:38:07;3.10;;;0.32;;
52396;SDS011;38322;53.108;6.308;2023-04-03T15:40:33;3.42;;;0.60;;
52396;SDS011;38322;53.108;6.308;2023-04-03T15:42:59;1.33;;;0.30;;
52396;SDS011;38322;53.108;6.308;2023-04-03T15:45:27;1.45;;;0.63;;
52396;SDS011;38322;53.108;6.308;2023-04-03T15:47:55;1.75;;;0.40;;
52396;SDS011;38322;53.108;6.308;2023-04-03T15:50:22;2.53;;;0.40;;
52396;SDS011;38322;53.108;6.308;2023-04-03T15:52:49;1.58;;;0.63;;
52396;SDS011;38322;53.108;6.308;2023-04-03T15:55:20;2.72;;;0.50;;
52396;SDS011;38322;53.108;6.308;2023-04-03T15:57:47;2.70;;;0.60;;
52396;SDS011;38322;53.108;6.308;2023-04-03T16:00:13;2.75;;;0.50;;
52396;SDS011;38322;53.108;6.308;2023-04-03T16:02:40;2.67;;;0.50;;
52396;SDS011;38322;53.108;6.308;2023-04-03T16:05:07;5.78;;;0.30;;
52396;SDS011;38322;53.108;6.308;2023-04-03T16:07:34;1.67;;;0.40;;
52396;SDS011;38322;53.108;6.308;2023-04-03T16:10:01;2.72;;;0.40;;
52396;SDS011;38322;53.108;6.308;2023-04-03T16:12:27;1.42;;;0.30;;
52396;SDS011;38322;53.108;6.308;2023-04-03T16:14:53;1.40;;;0.50;;
52396;SDS011;38322;53.108;6.308;2023-04-03T16:17:19;2.03;;;0.40;;
52396;SDS011;38322;53.108;6.308;2023-04-03T16:19:45;2.88;;;0.82;;
52396;SDS011;38322;53.108;6.308;2023-04-03T16:22:10;2.53;;;0.80;;
52396;SDS011;38322;53.108;6.308;2023-04-03T16:24:37;3.42;;;0.40;;
52396;SDS011;38322;53.108;6.308;2023-04-03T16:27:03;5.80;;;1.15;;
52396;SDS011;38322;53.108;6.308;2023-04-03T16:29:29;4.63;;;0.75;;
52396;SDS011;38322;53.108;6.308;2023-04-03T16:31:56;0.90;;;0.52;;
52396;SDS011;38322;53.108;6.308;2023-04-03T16:34:23;1.88;;;0.30;;
52396;SDS011;38322;53.108;6.308;2023-04-03T16:36:51;1.83;;;0.38;;
52396;SDS011;38322;53.108;6.308;2023-04-03T16:39:17;6.18;;;0.55;;
52396;SDS011;38322;53.108;6.308;2023-04-03T16:41:44;0.77;;;0.20;;
52396;SDS011;38322;53.108;6.308;2023-04-03T16:44:10;1.52;;;0.35;;
52396;SDS011;38322;53.108;6.308;2023-04-03T16:46:36;3.45;;;0.38;;
52396;SDS011;38322;53.108;6.308;2023-04-03T16:49:02;1.60;;;0.60;;
52396;SDS011;38322;53.108;6.308;2023-04-03T16:51:28;1.60;;;0.32;;
52396;SDS011;38322;53.108;6.308;2023-04-03T16:53:55;1.15;;;0.20;;
52396;SDS011;38322;53.108;6.308;2023-04-03T16:56:21;2.53;;;0.50;;
52396;SDS011;38322;53.108;6.308;2023-04-03T16:58:47;1.55;;;0.20;;
52396;SDS011;38322;53.108;6.308;2023-04-03T17:01:14;2.13;;;0.20;;
52396;SDS011;38322;53.108;6.308;2023-04-03T17:03:42;1.63;;;0.38;;
52396;SDS011;38322;53.108;6.308;2023-04-03T17:06:09;4.75;;;0.63;;
52396;SDS011;38322;53.108;6.308;2023-04-03T17:08:41;3.90;;;0.43;;
52396;SDS011;38322;53.108;6.308;2023-04-03T17:11:08;5.45;;;0.75;;
52396;SDS011;38322;53.108;6.308;2023-04-03T17:13:34;1.42;;;0.30;;
52396;SDS011;38322;53.108;6.308;2023-04-03T17:16:00;1.80;;;0.77;;
52396;SDS011;38322;53.108;6.308;2023-04-03T17:18:30;3.72;;;0.85;;
52396;SDS011;38322;53.108;6.308;2023-04-03T17:20:57;1.42;;;0.35;;
52396;SDS011;38322;53.108;6.308;2023-04-03T17:23:24;2.35;;;0.38;;
52396;SDS011;38322;53.108;6.308;2023-04-03T17:25:51;6.40;;;1.92;;
52396;SDS011;38322;53.108;6.308;2023-04-03T17:28:19;1.67;;;0.93;;
52396;SDS011;38322;53.108;6.308;2023-04-03T17:30:46;5.45;;;0.88;;
52396;SDS011;38322;53.108;6.308;2023-04-03T17:33:12;1.75;;;0.40;;
52396;SDS011;38322;53.108;6.308;2023-04-03T17:35:38;3.42;;;0.90;;
52396;SDS011;38322;53.108;6.308;2023-04-03T17:38:04;2.33;;;0.40;;
52396;SDS011;38322;53.108;6.308;2023-04-03T17:40:30;6.35;;;0.65;;
52396;SDS011;38322;53.108;6.308;2023-04-03T17:42:56;3.10;;;0.52;;
52396;SDS011;38322;53.108;6.308;2023-04-03T17:45:22;4.22;;;0.50;;
52396;SDS011;38322;53.108;6.308;2023-04-03T17:47:50;4.03;;;0.77;;
52396;SDS011;38322;53.108;6.308;2023-04-03T17:50:16;3.58;;;0.47;;
52396;SDS011;38322;53.108;6.308;2023-04-03T17:52:43;6.45;;;0.85;;
52396;SDS011;38322;53.108;6.308;2023-04-03T17:55:09;1.02;;;0.60;;
52396;SDS011;38322;53.108;6.308;2023-04-03T17:57:35;3.55;;;1.02;;
52396;SDS011;38322;53.108;6.308;2023-04-03T18:00:01;2.08;;;0.40;;
52396;SDS011;38322;53.108;6.308;2023-04-03T18:02:28;3.67;;;0.65;;
52396;SDS011;38322;53.108;6.308;2023-04-03T18:04:54;4.43;;;1.30;;
52396;SDS011;38322;53.108;6.308;2023-04-03T18:07:20;4.15;;;0.65;;
52396;SDS011;38322;53.108;6.308;2023-04-03T18:09:46;2.33;;;0.90;;
52396;SDS011;38322;53.108;6.308;2023-04-03T18:12:15;2.80;;;0.77;;
52396;SDS011;38322;53.108;6.308;2023-04-03T18:14:41;4.38;;;0.80;;
52396;SDS011;38322;53.108;6.308;2023-04-03T18:17:07;5.88;;;1.45;;
52396;SDS011;38322;53.108;6.308;2023-04-03T18:19:33;3.65;;;1.40;;
52396;SDS011;38322;53.108;6.308;2023-04-03T18:22:00;2.35;;;0.85;;
52396;SDS011;38322;53.108;6.308;2023-04-03T18:24:30;1.80;;;0.40;;
52396;SDS011;38322;53.108;6.308;2023-04-03T18:26:59;5.72;;;1.08;;
52396;SDS011;38322;53.108;6.308;2023-04-03T18:29:31;1.67;;;1.20;;
52396;SDS011;38322;53.108;6.308;2023-04-03T18:32:00;4.95;;;1.00;;
52396;SDS011;38322;53.108;6.308;2023-04-03T18:34:28;3.08;;;1.08;;
52396;SDS011;38322;53.108;6.308;2023-04-03T18:36:55;2.10;;;1.67;;
52396;SDS011;38322;53.108;6.308;2023-04-03T18:39:21;3.55;;;1.27;;
52396;SDS011;38322;53.108;6.308;2023-04-03T18:41:47;2.55;;;0.88;;
52396;SDS011;38322;53.108;6.308;2023-04-03T18:44:14;6.57;;;1.67;;
52396;SDS011;38322;53.108;6.308;2023-04-03T18:46:44;3.72;;;1.33;;
52396;SDS011;38322;53.108;6.308;2023-04-03T18:49:10;4.07;;;0.88;;
52396;SDS011;38322;53.108;6.308;2023-04-03T18:51:37;2.83;;;1.05;;
52396;SDS011;38322;53.108;6.308;2023-04-03T18:54:04;5.75;;;1.15;;
52396;SDS011;38322;53.108;6.308;2023-04-03T18:56:30;5.75;;;1.27;;
52396;SDS011;38322;53.108;6.308;2023-04-03T18:58:56;6.60;;;1.38;;
52396;SDS011;38322;53.108;6.308;2023-04-03T19:01:22;4.88;;;1.35;;
52396;SDS011;38322;53.108;6.308;2023-04-03T19:03:48;4.28;;;1.75;;
52396;SDS011;38322;53.108;6.308;2023-04-03T19:06:14;4.85;;;1.70;;
52396;SDS011;38322;53.108;6.308;2023-04-03T19:08:40;6.90;;;1.58;;
52396;SDS011;38322;53.108;6.308;2023-04-03T19:11:06;4.95;;;1.45;;
52396;SDS011;38322;53.108;6.308;2023-04-03T19:13:32;5.25;;;1.10;;
52396;SDS011;38322;53.108;6.308;2023-04-03T19:15:58;5.60;;;1.05;;
52396;SDS011;38322;53.108;6.308;2023-04-03T19:18:25;4.55;;;1.33;;
52396;SDS011;38322;53.108;6.308;2023-04-03T19:20:53;5.82;;;1.70;;
52396;SDS011;38322;53.108;6.308;2023-04-03T19:23:20;5.65;;;1.73;;
52396;SDS011;38322;53.108;6.308;2023-04-03T19:25:55;4.50;;;1.52;;
52396;SDS011;38322;53.108;6.308;2023-04-03T19:28:23;5.07;;;1.30;;
52396;SDS011;38322;53.108;6.308;2023-04-03T19:30:50;4.38;;;1.08;;
52396;SDS011;38322;53.108;6.308;2023-04-03T19:33:17;4.63;;;2.08;;
52396;SDS011;38322;53.108;6.308;2023-04-03T19:35:43;6.43;;;1.33;;
52396;SDS011;38322;53.108;6.308;2023-04-03T19:38:09;5.53;;;1.63;;
52396;SDS011;38322;53.108;6.308;2023-04-03T19:40:35;4.25;;;1.55;;
52396;SDS011;38322;53.108;6.308;2023-04-03T19:43:02;2.15;;;1.20;;
52396;SDS011;38322;53.108;6.308;2023-04-03T19:45:29;5.85;;;1.13;;
52396;SDS011;38322;53.108;6.308;2023-04-03T19:47:55;6.35;;;1.63;;
52396;SDS011;38322;53.108;6.308;2023-04-03T19:50:25;4.20;;;2.33;;
52396;SDS011;38322;53.108;6.308;2023-04-03T19:52:51;7.43;;;2.22;;
52396;SDS011;38322;53.108;6.308;2023-04-03T19:55:17;5.50;;;2.33;;
52396;SDS011;38322;53.108;6.308;2023-04-03T19:57:43;8.70;;;3.33;;
52396;SDS011;38322;53.108;6.308;2023-04-03T20:00:09;6.15;;;2.05;;
